sensor_id;sensor_type;location;lat;lon;timestamp;pressure;altitude;pressure_sealevel;temperature;humidity
45872;BME280;32333;55.844;-3.210;2023-06-26T00:01:44;99087.02;;;11.09;100.00
45872;BME280;32333;55.844;-3.210;2023-06-26T00:04:12;99088.10;;;11.09;100.00
45872;BME280;32333;55.844;-3.210;2023-06-26T00:06:39;99092.01;;;10.76;100.00
45872;BME280;32333;55.844;-3.210;2023-06-26T00:09:06;99091.14;;;11.59;100.00
45872;BME280;32333;55.844;-3.210;2023-06-26T00:11:33;99094.47;;;11.37;100.00
45872;BME280;32333;55.844;-3.210;2023-06-26T00:14:35;99096.94;;;11.25;100.00
45872;BME280;32333;55.844;-3.210;2023-06-26T00:17:02;99095.88;;;10.92;100.00
45872;BME280;32333;55.844;-3.210;2023-06-26T00:19:29;99090.22;;;10.80;100.00
45872;BME280;32333;55.844;-3.210;2023-06-26T00:21:56;99097.35;;;11.35;100.00
45872;BME280;32333;55.844;-3.210;2023-06-26T00:24:24;99091.34;;;11.28;100.00
45872;BME280;32333;55.844;-3.210;2023-06-26T00:26:51;99097.19;;;11.67;100.00
45872;BME280;32333;55.844;-3.210;2023-06-26T00:29:18;99088.90;;;11.63;100.00
45872;BME280;32333;55.844;-3.210;2023-06-26T00:31:45;99094.05;;;10.89;100.00
45872;BME280;32333;55.844;-3.210;2023-06-26T00:34:12;99089.48;;;11.09;100.00
45872;BME280;32333;55.844;-3.210;2023-06-26T00:36:39;99093.07;;;11.44;100.00
45872;BME280;32333;55.844;-3.210;2023-06-26T00:39:06;99097.23;;;11.32;100.00
45872;BME280;32333;55.844;-3.210;2023-06-26T00:41:33;99095.76;;;11.59;100.00
45872;BME280;32333;55.844;-3.210;2023-06-26T00:44:34;99096.04;;;11.28;100.00
45872;BME280;32333;55.844;-3.210;2023-06-26T00:47:01;99100.14;;;11.28;100.00
45872;BME280;32333;55.844;-3.210;2023-06-26T00:49:29;99101.56;;;11.51;100.00
45872;BME280;32333;55.844;-3.210;2023-06-26T00:51:56;99101.53;;;10.88;100.00
45872;BME280;32333;55.844;-3.210;2023-06-26T00:54:25;99107.23;;;10.50;100.00
45872;BME280;32333;55.844;-3.210;2023-06-26T00:56:52;99107.15;;;10.85;100.00
45872;BME280;32333;55.844;-3.210;2023-06-26T00:59:20;99111.27;;;10.73;100.00
45872;BME280;32333;55.844;-3.210;2023-06-26T01:01:48;99119.14;;;10.33;100.00
45872;BME280;32333;55.844;-3.210;2023-06-26T01:04:16;99117.20;;;10.37;100.00
45872;BME280;32333;55.844;-3.210;2023-06-26T01:06:44;99123.92;;;11.24;100.00
45872;BME280;32333;55.844;-3.210;2023-06-26T01:09:14;99126.49;;;10.89;100.00
45872;BME280;32333;55.844;-3.210;2023-06-26T01:11:42;99130.27;;;10.19;100.00
45872;BME280;32333;55.844;-3.210;2023-06-26T01:14:34;99135.82;;;10.96;100.00
45872;BME280;32333;55.844;-3.210;2023-06-26T01:17:03;99133.70;;;11.41;100.00
45872;BME280;32333;55.844;-3.210;2023-06-26T01:19:32;99134.28;;;10.55;100.00
45872;BME280;32333;55.844;-3.210;2023-06-26T01:22:06;99138.68;;;10.67;100.00
45872;BME280;32333;55.844;-3.210;2023-06-26T01:24:37;99139.43;;;10.79;100.00
45872;BME280;32333;55.844;-3.210;2023-06-26T01:27:06;99144.25;;;9.89;100.00
45872;BME280;32333;55.844;-3.210;2023-06-26T01:29:35;99148.98;;;11.04;100.00
45872;BME280;32333;55.844;-3.210;2023-06-26T01:32:03;99145.58;;;10.92;100.00
45872;BME280;32333;55.844;-3.210;2023-06-26T01:34:32;99147.10;;;10.59;100.00
45872;BME280;32333;55.844;-3.210;2023-06-26T01:37:00;99153.10;;;10.63;100.00
45872;BME280;32333;55.844;-3.210;2023-06-26T01:39:28;99150.95;;;10.96;100.00
45872;BME280;32333;55.844;-3.210;2023-06-26T01:41:56;99155.52;;;10.75;100.00
45872;BME280;32333;55.844;-3.210;2023-06-26T01:44:38;99156.42;;;10.86;100.00
45872;BME280;32333;55.844;-3.210;2023-06-26T01:47:10;99158.70;;;10.61;100.00
45872;BME280;32333;55.844;-3.210;2023-06-26T01:49:46;99162.92;;;11.33;100.00
45872;BME280;32333;55.844;-3.210;2023-06-26T01:52:19;99166.50;;;11.18;100.00
45872;BME280;32333;55.844;-3.210;2023-06-26T01:54:54;99169.96;;;10.88;100.00
45872;BME280;32333;55.844;-3.210;2023-06-26T01:57:23;99167.28;;;10.96;100.00
45872;BME280;32333;55.844;-3.210;2023-06-26T01:59:54;99167.94;;;10.27;100.00
45872;BME280;32333;55.844;-3.210;2023-06-26T02:02:23;99173.16;;;10.96;100.00
45872;BME280;32333;55.844;-3.210;2023-06-26T02:04:51;99168.46;;;10.50;100.00
45872;BME280;32333;55.844;-3.210;2023-06-26T02:07:19;99171.08;;;10.53;100.00
45872;BME280;32333;55.844;-3.210;2023-06-26T02:09:46;99174.64;;;10.75;100.00
45872;BME280;32333;55.844;-3.210;2023-06-26T02:14:35;99172.37;;;10.55;100.00
45872;BME280;32333;55.844;-3.210;2023-06-26T02:17:03;99172.04;;;10.72;100.00
45872;BME280;32333;55.844;-3.210;2023-06-26T02:19:30;99170.75;;;10.68;100.00
45872;BME280;32333;55.844;-3.210;2023-06-26T02:21:58;99168.62;;;10.89;100.00
45872;BME280;32333;55.844;-3.210;2023-06-26T02:24:25;99175.20;;;10.52;100.00
45872;BME280;32333;55.844;-3.210;2023-06-26T02:26:52;99178.92;;;10.85;100.00
45872;BME280;32333;55.844;-3.210;2023-06-26T02:29:19;99175.03;;;11.13;100.00
45872;BME280;32333;55.844;-3.210;2023-06-26T02:31:46;99174.50;;;10.66;100.00
45872;BME280;32333;55.844;-3.210;2023-06-26T02:34:13;99178.56;;;10.79;100.00
45872;BME280;32333;55.844;-3.210;2023-06-26T02:36:40;99175.44;;;10.17;100.00
45872;BME280;32333;55.844;-3.210;2023-06-26T02:39:07;99177.59;;;10.20;100.00
45872;BME280;32333;55.844;-3.210;2023-06-26T02:41:34;99177.37;;;9.73;100.00
45872;BME280;32333;55.844;-3.210;2023-06-26T02:44:34;99176.80;;;10.01;100.00
45872;BME280;32333;55.844;-3.210;2023-06-26T02:47:02;99171.59;;;10.55;100.00
45872;BME280;32333;55.844;-3.210;2023-06-26T02:49:30;99172.49;;;10.49;100.00
45872;BME280;32333;55.844;-3.210;2023-06-26T02:51:59;99176.39;;;9.83;100.00
45872;BME280;32333;55.844;-3.210;2023-06-26T02:54:26;99175.50;;;9.97;100.00
45872;BME280;32333;55.844;-3.210;2023-06-26T02:56:53;99181.06;;;9.85;100.00
45872;BME280;32333;55.844;-3.210;2023-06-26T02:59:20;99183.05;;;9.94;100.00
45872;BME280;32333;55.844;-3.210;2023-06-26T03:01:47;99184.13;;;9.71;100.00
45872;BME280;32333;55.844;-3.210;2023-06-26T03:04:14;99187.59;;;9.90;100.00
45872;BME280;32333;55.844;-3.210;2023-06-26T03:06:41;99191.66;;;10.11;100.00
45872;BME280;32333;55.844;-3.210;2023-06-26T03:09:08;99189.98;;;10.48;100.00
45872;BME280;32333;55.844;-3.210;2023-06-26T03:11:36;99188.68;;;10.95;100.00
45872;BME280;32333;55.844;-3.210;2023-06-26T03:14:35;99192.91;;;10.88;100.00
45872;BME280;32333;55.844;-3.210;2023-06-26T03:17:02;99193.73;;;10.50;100.00
45872;BME280;32333;55.844;-3.210;2023-06-26T03:19:29;99193.10;;;10.87;100.00
45872;BME280;32333;55.844;-3.210;2023-06-26T03:21:58;99195.39;;;11.03;100.00
45872;BME280;32333;55.844;-3.210;2023-06-26T03:24:25;99195.04;;;10.60;100.00
45872;BME280;32333;55.844;-3.210;2023-06-26T03:26:52;99193.61;;;11.00;100.00
45872;BME280;32333;55.844;-3.210;2023-06-26T03:29:20;99197.80;;;10.05;100.00
45872;BME280;32333;55.844;-3.210;2023-06-26T03:31:47;99194.74;;;10.86;100.00
45872;BME280;32333;55.844;-3.210;2023-06-26T03:34:14;99197.85;;;11.42;100.00
45872;BME280;32333;55.844;-3.210;2023-06-26T03:36:42;99203.94;;;10.48;100.00
45872;BME280;32333;55.844;-3.210;2023-06-26T03:39:10;99207.71;;;11.18;100.00
45872;BME280;32333;55.844;-3.210;2023-06-26T03:41:37;99206.48;;;9.97;100.00
45872;BME280;32333;55.844;-3.210;2023-06-26T03:44:35;99213.84;;;10.32;100.00
45872;BME280;32333;55.844;-3.210;2023-06-26T03:47:03;99212.76;;;10.77;100.00
45872;BME280;32333;55.844;-3.210;2023-06-26T03:49:30;99213.00;;;10.72;100.00
45872;BME280;32333;55.844;-3.210;2023-06-26T03:51:58;99212.38;;;10.07;100.00
45872;BME280;32333;55.844;-3.210;2023-06-26T03:54:25;99208.98;;;10.67;100.00
45872;BME280;32333;55.844;-3.210;2023-06-26T03:56:53;99209.09;;;9.99;100.00
45872;BME280;32333;55.844;-3.210;2023-06-26T03:59:20;99207.14;;;10.73;100.00
45872;BME280;32333;55.844;-3.210;2023-06-26T04:01:47;99206.24;;;10.57;100.00
45872;BME280;32333;55.844;-3.210;2023-06-26T04:04:15;99204.95;;;10.25;100.00
45872;BME280;32333;55.844;-3.210;2023-06-26T04:06:42;99201.67;;;11.27;100.00
45872;BME280;32333;55.844;-3.210;2023-06-26T04:09:10;99204.00;;;11.09;100.00
45872;BME280;32333;55.844;-3.210;2023-06-26T04:11:38;99210.56;;;10.47;100.00
45872;BME280;32333;55.844;-3.210;2023-06-26T04:14:33;99212.98;;;10.41;100.00
45872;BME280;32333;55.844;-3.210;2023-06-26T04:17:01;99211.75;;;11.22;100.00
45872;BME280;32333;55.844;-3.210;2023-06-26T04:19:28;99215.38;;;11.37;100.00
45872;BME280;32333;55.844;-3.210;2023-06-26T04:21:56;99214.28;;;10.29;100.00
45872;BME280;32333;55.844;-3.210;2023-06-26T04:24:23;99212.36;;;10.63;100.00
45872;BME280;32333;55.844;-3.210;2023-06-26T04:26:50;99215.84;;;11.58;100.00
45872;BME280;32333;55.844;-3.210;2023-06-26T04:29:17;99216.58;;;11.21;100.00
45872;BME280;32333;55.844;-3.210;2023-06-26T04:31:45;99217.15;;;11.32;100.00
45872;BME280;32333;55.844;-3.210;2023-06-26T04:34:13;99215.77;;;11.58;100.00
45872;BME280;32333;55.844;-3.210;2023-06-26T04:36:40;99222.66;;;12.78;100.00
45872;BME280;32333;55.844;-3.210;2023-06-26T04:39:07;99223.64;;;12.11;100.00
45872;BME280;32333;55.844;-3.210;2023-06-26T04:41:34;99221.55;;;12.72;100.00
45872;BME280;32333;55.844;-3.210;2023-06-26T04:44:35;99223.19;;;12.20;100.00
45872;BME280;32333;55.844;-3.210;2023-06-26T04:47:02;99230.20;;;12.74;100.00
45872;BME280;32333;55.844;-3.210;2023-06-26T04:49:30;99230.42;;;13.16;100.00
45872;BME280;32333;55.844;-3.210;2023-06-26T04:51:59;99235.31;;;12.55;100.00
45872;BME280;32333;55.844;-3.210;2023-06-26T04:54:26;99231.82;;;13.51;100.00
45872;BME280;32333;55.844;-3.210;2023-06-26T04:56:54;99231.75;;;13.59;100.00
45872;BME280;32333;55.844;-3.210;2023-06-26T04:59:22;99229.63;;;14.67;100.00
45872;BME280;32333;55.844;-3.210;2023-06-26T05:01:49;99232.41;;;14.85;100.00
45872;BME280;32333;55.844;-3.210;2023-06-26T05:04:16;99239.10;;;14.64;100.00
45872;BME280;32333;55.844;-3.210;2023-06-26T05:06:45;99240.96;;;15.58;100.00
45872;BME280;32333;55.844;-3.210;2023-06-26T05:09:12;99238.25;;;14.89;100.00
45872;BME280;32333;55.844;-3.210;2023-06-26T05:11:39;99236.31;;;14.91;100.00
45872;BME280;32333;55.844;-3.210;2023-06-26T05:14:35;99239.96;;;14.26;100.00
45872;BME280;32333;55.844;-3.210;2023-06-26T05:17:02;99236.97;;;13.67;100.00
45872;BME280;32333;55.844;-3.210;2023-06-26T05:19:30;99237.03;;;14.83;100.00
45872;BME280;32333;55.844;-3.210;2023-06-26T05:21:59;99235.06;;;14.29;100.00
45872;BME280;32333;55.844;-3.210;2023-06-26T05:24:29;99237.23;;;14.14;100.00
45872;BME280;32333;55.844;-3.210;2023-06-26T05:26:57;99242.08;;;13.40;100.00
45872;BME280;32333;55.844;-3.210;2023-06-26T05:29:26;99242.42;;;13.24;100.00
45872;BME280;32333;55.844;-3.210;2023-06-26T05:31:53;99241.53;;;13.10;100.00
45872;BME280;32333;55.844;-3.210;2023-06-26T05:34:24;99245.40;;;12.58;100.00
45872;BME280;32333;55.844;-3.210;2023-06-26T05:36:52;99247.12;;;13.16;100.00
45872;BME280;32333;55.844;-3.210;2023-06-26T05:39:23;99248.85;;;11.83;100.00
45872;BME280;32333;55.844;-3.210;2023-06-26T05:41:51;99245.19;;;12.38;100.00
45872;BME280;32333;55.844;-3.210;2023-06-26T05:44:36;99254.36;;;13.30;100.00
45872;BME280;32333;55.844;-3.210;2023-06-26T05:47:03;99249.77;;;12.72;100.00
45872;BME280;32333;55.844;-3.210;2023-06-26T05:49:31;99254.61;;;12.19;100.00
45872;BME280;32333;55.844;-3.210;2023-06-26T05:51:59;99254.21;;;12.74;100.00
45872;BME280;32333;55.844;-3.210;2023-06-26T05:54:27;99254.27;;;11.19;100.00
45872;BME280;32333;55.844;-3.210;2023-06-26T05:56:57;99260.52;;;11.44;100.00
45872;BME280;32333;55.844;-3.210;2023-06-26T05:59:25;99256.72;;;12.39;100.00
45872;BME280;32333;55.844;-3.210;2023-06-26T06:01:52;99261.96;;;11.78;100.00
45872;BME280;32333;55.844;-3.210;2023-06-26T06:04:19;99262.34;;;11.83;100.00
45872;BME280;32333;55.844;-3.210;2023-06-26T06:06:47;99261.22;;;12.71;100.00
45872;BME280;32333;55.844;-3.210;2023-06-26T06:09:15;99265.71;;;11.98;100.00
45872;BME280;32333;55.844;-3.210;2023-06-26T06:11:42;99264.85;;;12.26;100.00
45872;BME280;32333;55.844;-3.210;2023-06-26T06:14:35;99264.50;;;13.09;100.00
45872;BME280;32333;55.844;-3.210;2023-06-26T06:17:03;99265.98;;;12.30;100.00
45872;BME280;32333;55.844;-3.210;2023-06-26T06:19:31;99267.79;;;12.36;100.00
45872;BME280;32333;55.844;-3.210;2023-06-26T06:21:59;99269.62;;;11.87;100.00
45872;BME280;32333;55.844;-3.210;2023-06-26T06:24:27;99273.95;;;12.08;100.00
45872;BME280;32333;55.844;-3.210;2023-06-26T06:26:54;99271.12;;;11.76;100.00
45872;BME280;32333;55.844;-3.210;2023-06-26T06:29:23;99274.75;;;12.00;100.00
45872;BME280;32333;55.844;-3.210;2023-06-26T06:31:50;99278.08;;;11.32;100.00
45872;BME280;32333;55.844;-3.210;2023-06-26T06:34:17;99285.91;;;11.91;100.00
45872;BME280;32333;55.844;-3.210;2023-06-26T06:36:46;99287.23;;;12.12;100.00
45872;BME280;32333;55.844;-3.210;2023-06-26T06:39:13;99287.25;;;12.51;100.00
45872;BME280;32333;55.844;-3.210;2023-06-26T06:41:41;99287.83;;;11.34;100.00
45872;BME280;32333;55.844;-3.210;2023-06-26T06:44:36;99290.16;;;12.67;100.00
45872;BME280;32333;55.844;-3.210;2023-06-26T06:47:03;99288.02;;;12.24;100.00
45872;BME280;32333;55.844;-3.210;2023-06-26T06:49:31;99296.27;;;12.41;100.00
45872;BME280;32333;55.844;-3.210;2023-06-26T06:51:59;99297.44;;;12.07;100.00
45872;BME280;32333;55.844;-3.210;2023-06-26T06:54:27;99299.95;;;12.87;100.00
45872;BME280;32333;55.844;-3.210;2023-06-26T06:56:54;99297.24;;;13.36;100.00
45872;BME280;32333;55.844;-3.210;2023-06-26T06:59:23;99299.57;;;12.41;100.00
45872;BME280;32333;55.844;-3.210;2023-06-26T07:01:50;99310.63;;;13.26;100.00
45872;BME280;32333;55.844;-3.210;2023-06-26T07:04:17;99305.43;;;12.74;100.00
45872;BME280;32333;55.844;-3.210;2023-06-26T07:06:45;99301.55;;;12.15;100.00
45872;BME280;32333;55.844;-3.210;2023-06-26T07:09:12;99305.94;;;13.19;100.00
45872;BME280;32333;55.844;-3.210;2023-06-26T07:11:40;99305.76;;;12.99;100.00
45872;BME280;32333;55.844;-3.210;2023-06-26T07:14:35;99306.63;;;13.06;100.00
45872;BME280;32333;55.844;-3.210;2023-06-26T07:17:03;99309.62;;;12.38;100.00
45872;BME280;32333;55.844;-3.210;2023-06-26T07:19:31;99310.69;;;12.94;100.00
45872;BME280;32333;55.844;-3.210;2023-06-26T07:21:59;99312.05;;;12.26;100.00
45872;BME280;32333;55.844;-3.210;2023-06-26T07:24:26;99308.84;;;13.12;100.00
45872;BME280;32333;55.844;-3.210;2023-06-26T07:26:53;99306.87;;;12.78;100.00
45872;BME280;32333;55.844;-3.210;2023-06-26T07:29:21;99304.75;;;13.18;100.00
45872;BME280;32333;55.844;-3.210;2023-06-26T07:31:49;99304.84;;;13.16;100.00
45872;BME280;32333;55.844;-3.210;2023-06-26T07:34:16;99310.14;;;13.18;100.00
45872;BME280;32333;55.844;-3.210;2023-06-26T07:36:43;99312.50;;;13.91;100.00
45872;BME280;32333;55.844;-3.210;2023-06-26T07:39:11;99307.05;;;14.37;100.00
45872;BME280;32333;55.844;-3.210;2023-06-26T07:41:38;99306.99;;;13.52;100.00
45872;BME280;32333;55.844;-3.210;2023-06-26T07:44:35;99300.84;;;15.06;100.00
45872;BME280;32333;55.844;-3.210;2023-06-26T07:47:03;99295.67;;;14.74;100.00
45872;BME280;32333;55.844;-3.210;2023-06-26T07:49:31;99299.45;;;15.73;100.00
45872;BME280;32333;55.844;-3.210;2023-06-26T07:51:59;99300.98;;;14.80;100.00
45872;BME280;32333;55.844;-3.210;2023-06-26T07:54:26;99298.45;;;15.29;100.00
45872;BME280;32333;55.844;-3.210;2023-06-26T07:56:55;99298.74;;;15.24;100.00
45872;BME280;32333;55.844;-3.210;2023-06-26T07:59:24;99303.04;;;15.40;100.00
45872;BME280;32333;55.844;-3.210;2023-06-26T08:01:53;99298.93;;;14.78;100.00
45872;BME280;32333;55.844;-3.210;2023-06-26T08:04:22;99302.14;;;15.11;100.00
45872;BME280;32333;55.844;-3.210;2023-06-26T08:06:51;99298.27;;;15.34;100.00
45872;BME280;32333;55.844;-3.210;2023-06-26T08:09:21;99304.86;;;16.00;100.00
45872;BME280;32333;55.844;-3.210;2023-06-26T08:11:49;99306.84;;;16.96;100.00
45872;BME280;32333;55.844;-3.210;2023-06-26T08:14:36;99304.64;;;17.65;100.00
45872;BME280;32333;55.844;-3.210;2023-06-26T08:17:04;99312.02;;;17.33;100.00
45872;BME280;32333;55.844;-3.210;2023-06-26T08:19:31;99303.77;;;17.03;100.00
45872;BME280;32333;55.844;-3.210;2023-06-26T08:21:58;99312.57;;;16.86;100.00
45872;BME280;32333;55.844;-3.210;2023-06-26T08:24:25;99318.04;;;16.87;100.00
45872;BME280;32333;55.844;-3.210;2023-06-26T08:26:52;99315.31;;;16.56;100.00
45872;BME280;32333;55.844;-3.210;2023-06-26T08:29:21;99324.16;;;17.42;100.00
45872;BME280;32333;55.844;-3.210;2023-06-26T08:31:48;99321.09;;;17.72;100.00
45872;BME280;32333;55.844;-3.210;2023-06-26T08:34:15;99320.93;;;16.70;100.00
45872;BME280;32333;55.844;-3.210;2023-06-26T08:36:44;99326.89;;;17.00;100.00
45872;BME280;32333;55.844;-3.210;2023-06-26T08:39:11;99323.51;;;16.23;100.00
45872;BME280;32333;55.844;-3.210;2023-06-26T08:41:38;99320.59;;;16.76;100.00
45872;BME280;32333;55.844;-3.210;2023-06-26T08:44:36;99313.71;;;17.86;100.00
45872;BME280;32333;55.844;-3.210;2023-06-26T08:47:04;99323.04;;;18.49;100.00
45872;BME280;32333;55.844;-3.210;2023-06-26T08:49:40;99322.64;;;17.79;100.00
45872;BME280;32333;55.844;-3.210;2023-06-26T08:52:19;99319.09;;;18.40;100.00
45872;BME280;32333;55.844;-3.210;2023-06-26T08:54:54;99316.35;;;18.51;100.00
45872;BME280;32333;55.844;-3.210;2023-06-26T08:57:26;99315.49;;;18.25;100.00
45872;BME280;32333;55.844;-3.210;2023-06-26T08:59:53;99321.89;;;17.52;100.00
45872;BME280;32333;55.844;-3.210;2023-06-26T09:02:21;99322.94;;;17.18;100.00
45872;BME280;32333;55.844;-3.210;2023-06-26T09:04:50;99321.85;;;16.83;100.00
45872;BME280;32333;55.844;-3.210;2023-06-26T09:07:17;99325.80;;;16.56;100.00
45872;BME280;32333;55.844;-3.210;2023-06-26T09:09:45;99325.00;;;17.62;100.00
45872;BME280;32333;55.844;-3.210;2023-06-26T09:14:36;99321.90;;;18.95;100.00
45872;BME280;32333;55.844;-3.210;2023-06-26T09:17:04;99325.92;;;18.08;100.00
45872;BME280;32333;55.844;-3.210;2023-06-26T09:19:31;99327.94;;;18.59;100.00
45872;BME280;32333;55.844;-3.210;2023-06-26T09:22:00;99321.35;;;17.95;100.00
45872;BME280;32333;55.844;-3.210;2023-06-26T09:24:27;99326.44;;;17.64;100.00
45872;BME280;32333;55.844;-3.210;2023-06-26T09:26:54;99326.34;;;16.90;100.00
45872;BME280;32333;55.844;-3.210;2023-06-26T09:29:22;99331.08;;;17.00;100.00
45872;BME280;32333;55.844;-3.210;2023-06-26T09:31:51;99329.33;;;17.29;100.00
45872;BME280;32333;55.844;-3.210;2023-06-26T09:34:20;99334.34;;;17.17;100.00
45872;BME280;32333;55.844;-3.210;2023-06-26T09:36:47;99330.98;;;17.49;100.00
45872;BME280;32333;55.844;-3.210;2023-06-26T09:39:14;99339.50;;;18.47;100.00
45872;BME280;32333;55.844;-3.210;2023-06-26T09:41:43;99344.76;;;16.94;100.00
45872;BME280;32333;55.844;-3.210;2023-06-26T09:44:35;99347.82;;;16.58;100.00
45872;BME280;32333;55.844;-3.210;2023-06-26T09:47:03;99349.75;;;16.55;100.00
45872;BME280;32333;55.844;-3.210;2023-06-26T09:49:31;99357.08;;;15.91;100.00
45872;BME280;32333;55.844;-3.210;2023-06-26T09:52:00;99355.95;;;17.63;100.00
45872;BME280;32333;55.844;-3.210;2023-06-26T09:54:28;99365.70;;;16.22;100.00
45872;BME280;32333;55.844;-3.210;2023-06-26T09:57:07;99367.16;;;15.92;100.00
45872;BME280;32333;55.844;-3.210;2023-06-26T09:59:35;99372.03;;;14.59;100.00
45872;BME280;32333;55.844;-3.210;2023-06-26T10:02:03;99384.73;;;15.36;100.00
45872;BME280;32333;55.844;-3.210;2023-06-26T10:04:31;99393.53;;;15.67;100.00
45872;BME280;32333;55.844;-3.210;2023-06-26T10:07:01;99394.85;;;15.47;100.00
45872;BME280;32333;55.844;-3.210;2023-06-26T10:09:29;99400.85;;;15.35;100.00
45872;BME280;32333;55.844;-3.210;2023-06-26T10:12:00;99404.58;;;13.89;100.00
45872;BME280;32333;55.844;-3.210;2023-06-26T10:14:37;99408.47;;;13.33;100.00
45872;BME280;32333;55.844;-3.210;2023-06-26T10:17:10;99411.71;;;13.73;100.00
45872;BME280;32333;55.844;-3.210;2023-06-26T10:19:41;99419.56;;;14.32;100.00
45872;BME280;32333;55.844;-3.210;2023-06-26T10:22:12;99422.61;;;14.78;100.00
45872;BME280;32333;55.844;-3.210;2023-06-26T10:24:41;99418.95;;;13.10;100.00
45872;BME280;32333;55.844;-3.210;2023-06-26T10:27:16;99416.57;;;13.43;100.00
45872;BME280;32333;55.844;-3.210;2023-06-26T10:29:46;99418.95;;;13.63;100.00
45872;BME280;32333;55.844;-3.210;2023-06-26T10:32:15;99423.25;;;12.93;100.00
45872;BME280;32333;55.844;-3.210;2023-06-26T10:34:44;99424.35;;;13.97;100.00
45872;BME280;32333;55.844;-3.210;2023-06-26T10:37:12;99416.78;;;15.90;100.00
45872;BME280;32333;55.844;-3.210;2023-06-26T10:39:46;99407.17;;;16.12;100.00
45872;BME280;32333;55.844;-3.210;2023-06-26T10:44:41;99419.96;;;15.12;100.00
45872;BME280;32333;55.844;-3.210;2023-06-26T10:47:11;99419.10;;;15.72;100.00
45872;BME280;32333;55.844;-3.210;2023-06-26T10:49:40;99425.21;;;15.58;100.00
45872;BME280;32333;55.844;-3.210;2023-06-26T10:52:14;99430.36;;;14.56;100.00
45872;BME280;32333;55.844;-3.210;2023-06-26T10:54:43;99430.23;;;14.55;100.00
45872;BME280;32333;55.844;-3.210;2023-06-26T10:57:23;99430.16;;;14.79;100.00
45872;BME280;32333;55.844;-3.210;2023-06-26T11:00:08;99437.30;;;14.36;100.00
45872;BME280;32333;55.844;-3.210;2023-06-26T11:02:47;99443.01;;;14.69;100.00
45872;BME280;32333;55.844;-3.210;2023-06-26T11:05:24;99441.39;;;14.75;100.00
45872;BME280;32333;55.844;-3.210;2023-06-26T11:08:09;99433.23;;;15.12;100.00
45872;BME280;32333;55.844;-3.210;2023-06-26T11:10:54;99441.34;;;14.82;100.00
45872;BME280;32333;55.844;-3.210;2023-06-26T11:14:35;99430.76;;;15.73;100.00
45872;BME280;32333;55.844;-3.210;2023-06-26T11:17:04;99424.18;;;16.18;100.00
45872;BME280;32333;55.844;-3.210;2023-06-26T11:19:33;99429.42;;;15.42;100.00
45872;BME280;32333;55.844;-3.210;2023-06-26T11:22:03;99423.82;;;15.79;100.00
45872;BME280;32333;55.844;-3.210;2023-06-26T11:24:33;99429.60;;;16.64;100.00
45872;BME280;32333;55.844;-3.210;2023-06-26T11:27:01;99421.33;;;17.16;100.00
45872;BME280;32333;55.844;-3.210;2023-06-26T11:29:31;99420.86;;;16.75;100.00
45872;BME280;32333;55.844;-3.210;2023-06-26T11:32:00;99418.48;;;17.96;100.00
45872;BME280;32333;55.844;-3.210;2023-06-26T11:34:30;99411.07;;;17.57;100.00
45872;BME280;32333;55.844;-3.210;2023-06-26T11:36:58;99409.82;;;18.33;100.00
45872;BME280;32333;55.844;-3.210;2023-06-26T11:39:25;99411.98;;;16.77;100.00
45872;BME280;32333;55.844;-3.210;2023-06-26T11:41:53;99409.80;;;17.41;100.00
45872;BME280;32333;55.844;-3.210;2023-06-26T11:44:40;99414.86;;;18.15;100.00
45872;BME280;32333;55.844;-3.210;2023-06-26T11:47:12;99411.23;;;17.78;100.00
45872;BME280;32333;55.844;-3.210;2023-06-26T11:49:42;99420.50;;;17.71;100.00
45872;BME280;32333;55.844;-3.210;2023-06-26T11:52:10;99422.47;;;18.21;100.00
45872;BME280;32333;55.844;-3.210;2023-06-26T11:54:37;99419.39;;;18.03;100.00
45872;BME280;32333;55.844;-3.210;2023-06-26T11:57:04;99430.56;;;17.88;100.00
45872;BME280;32333;55.844;-3.210;2023-06-26T11:59:34;99438.42;;;18.15;100.00
45872;BME280;32333;55.844;-3.210;2023-06-26T12:02:05;99452.16;;;17.28;100.00
45872;BME280;32333;55.844;-3.210;2023-06-26T12:04:34;99462.19;;;16.62;100.00
45872;BME280;32333;55.844;-3.210;2023-06-26T12:07:04;99464.30;;;16.79;100.00
45872;BME280;32333;55.844;-3.210;2023-06-26T12:09:33;99470.64;;;17.12;100.00
45872;BME280;32333;55.844;-3.210;2023-06-26T12:14:36;99469.24;;;16.83;100.00
45872;BME280;32333;55.844;-3.210;2023-06-26T12:17:09;99474.69;;;16.67;100.00
45872;BME280;32333;55.844;-3.210;2023-06-26T12:19:37;99476.59;;;16.40;100.00
45872;BME280;32333;55.844;-3.210;2023-06-26T12:22:07;99479.84;;;16.17;100.00
45872;BME280;32333;55.844;-3.210;2023-06-26T12:24:37;99484.98;;;16.67;100.00
45872;BME280;32333;55.844;-3.210;2023-06-26T12:27:08;99487.04;;;16.52;100.00
45872;BME280;32333;55.844;-3.210;2023-06-26T12:29:37;99480.65;;;17.32;100.00
45872;BME280;32333;55.844;-3.210;2023-06-26T12:32:09;99483.30;;;16.78;100.00
45872;BME280;32333;55.844;-3.210;2023-06-26T12:34:38;99480.65;;;17.55;100.00
45872;BME280;32333;55.844;-3.210;2023-06-26T12:37:07;99480.15;;;17.03;100.00
45872;BME280;32333;55.844;-3.210;2023-06-26T12:39:55;99477.99;;;18.21;100.00
45872;BME280;32333;55.844;-3.210;2023-06-26T12:44:36;99476.27;;;16.74;100.00
45872;BME280;32333;55.844;-3.210;2023-06-26T12:47:05;99488.16;;;16.55;100.00
45872;BME280;32333;55.844;-3.210;2023-06-26T12:49:34;99489.11;;;15.44;100.00
45872;BME280;32333;55.844;-3.210;2023-06-26T12:52:05;99487.69;;;16.62;100.00
45872;BME280;32333;55.844;-3.210;2023-06-26T12:54:34;99486.10;;;17.07;100.00
45872;BME280;32333;55.844;-3.210;2023-06-26T12:57:02;99483.38;;;16.79;100.00
45872;BME280;32333;55.844;-3.210;2023-06-26T12:59:31;99486.99;;;17.43;100.00
45872;BME280;32333;55.844;-3.210;2023-06-26T13:01:59;99479.44;;;17.17;100.00
45872;BME280;32333;55.844;-3.210;2023-06-26T13:04:27;99487.50;;;16.85;100.00
45872;BME280;32333;55.844;-3.210;2023-06-26T13:06:55;99488.58;;;17.32;100.00
45872;BME280;32333;55.844;-3.210;2023-06-26T13:09:23;99493.72;;;16.56;100.00